Belvidere, North Carolina
Current Conditions -  °F | °C
As of 7:15 AM on Friday 24 Oct 2014 (Local Time) from KEDE Reporting Station
Clear Clear  
Wind Chill: 48°   Ceiling: Unl
Heat Index: 49°   Visibility: 10mi
Dew Point: 45°   Wind: 5mph
Humidity: 84%   Direction: 320°NW
Pressure: 29.99"   Gusts: NA
Location:  36.27°N, 76.54°W
Report Text: KEDE 241115Z AUTO 32004KT 10SM CLR 10/07 A2999 RMK AO2 T00970071
Loading
Personal Weather Stations






























Interactive Weather Map
Tropical Storm Tracking
New forecast layout! Learn more

10-Day Weather Forecast

Advertisements
Track Severe Weather on mobile